Time;durP1;ratioP1;P1;durP2;ratioP2;P2;SDS_P1;SDS_P2;PMS_P1;PMS_P2;Temp;Humidity;BMP_temperature;BMP_pressure;BME280_temperature;BME280_humidity;BME280_pressure;Samples;Min_cycle;Max_cycle;Signal;HPM_P1;HPM_P2
2022/08/20 00:00:59;;;;;;;7.00;1.70;;;19.20;99.90;;;;;;5073421;28;20044;-83
2022/08/20 00:03:30;;;;;;;7.88;1.70;;;19.20;99.90;;;;;;5055583;28;20067;-84
2022/08/20 00:06:10;;;;;;;5.00;1.45;;;19.10;99.90;;;;;;5087913;28;20083;-83
2022/08/20 00:08:36;;;;;;;7.03;2.05;;;19.10;99.90;;;;;;5065432;28;20056;-83
2022/08/20 00:11:04;;;;;;;6.38;2.00;;;19.10;99.90;;;;;;5054544;28;20155;-83
2022/08/20 00:13:46;;;;;;;6.28;1.85;;;19.00;99.90;;;;;;5070500;28;20055;-82
2022/08/20 00:16:14;;;;;;;5.78;1.85;;;19.00;99.90;;;;;;5072658;28;20043;-82
2022/08/20 00:18:40;;;;;;;7.65;1.80;;;19.00;99.90;;;;;;5084548;28;20043;-82
2022/08/20 00:21:09;;;;;;;6.93;1.45;;;18.90;99.90;;;;;;5059542;28;20042;-82
2022/08/20 00:23:40;;;;;;;8.95;1.70;;;18.90;99.90;;;;;;5089250;28;20048;-81
2022/08/20 00:26:09;;;;;;;7.20;2.00;;;18.90;99.90;;;;;;5089008;28;20047;-82
2022/08/20 00:28:35;;;;;;;5.90;1.70;;;18.90;99.90;;;;;;5091371;28;20040;-82
2022/08/20 00:31:06;;;;;;;9.05;1.65;;;18.80;99.90;;;;;;5092314;28;20043;-82
2022/08/20 00:33:33;;;;;;;5.65;1.48;;;18.80;99.90;;;;;;5072161;28;20049;-82
2022/08/20 00:36:05;;;;;;;5.45;1.55;;;18.80;99.90;;;;;;5071678;28;20050;-83
2022/08/20 00:38:36;;;;;;;7.28;1.90;;;18.80;99.90;;;;;;5088279;28;20121;-82
2022/08/20 00:41:03;;;;;;;7.88;1.80;;;18.80;99.90;;;;;;5091847;28;20040;-83
2022/08/20 00:43:43;;;;;;;5.18;1.48;;;18.70;99.90;;;;;;5075931;28;20155;-83
2022/08/20 00:46:19;;;;;;;7.60;1.67;;;18.70;99.90;;;;;;5091301;28;20036;-83
2022/08/20 00:48:47;;;;;;;7.93;2.00;;;18.70;99.90;;;;;;5072091;28;21019;-82
2022/08/20 00:51:17;;;;;;;6.15;1.40;;;18.60;99.90;;;;;;5074422;28;20108;-84
2022/08/20 00:53:44;;;;;;;5.75;1.42;;;18.60;99.90;;;;;;5074459;28;20067;-82
2022/08/20 00:56:11;;;;;;;6.45;1.50;;;18.60;99.90;;;;;;5059458;28;20052;-83
2022/08/20 00:58:38;;;;;;;5.20;1.40;;;18.60;99.90;;;;;;5075275;28;20044;-82
2022/08/20 01:01:05;;;;;;;7.97;1.52;;;18.60;99.90;;;;;;5088865;28;20048;-82
2022/08/20 01:03:32;;;;;;;4.57;1.48;;;18.60;99.90;;;;;;5088913;28;20047;-83
2022/08/20 01:05:58;;;;;;;7.00;1.48;;;18.50;99.90;;;;;;5073393;28;20055;-83
2022/08/20 01:08:25;;;;;;;4.75;1.60;;;18.50;99.90;;;;;;5073829;28;20067;-81
2022/08/20 01:11:04;;;;;;;5.68;1.75;;;18.50;99.90;;;;;;5059758;28;20044;-83
2022/08/20 01:13:30;;;;;;;4.38;1.65;;;18.50;99.90;;;;;;5074332;28;20044;-85
2022/08/20 01:15:58;;;;;;;5.30;1.63;;;18.50;99.90;;;;;;5059837;28;20052;-83
2022/08/20 01:18:26;;;;;;;6.18;1.67;;;18.40;99.90;;;;;;5088599;28;20056;-83
2022/08/20 01:20:57;;;;;;;6.90;2.00;;;18.40;99.90;;;;;;5072326;28;20036;-81
2022/08/20 01:23:36;;;;;;;5.50;1.27;;;18.40;99.90;;;;;;5088545;28;20046;-83
2022/08/20 01:26:42;;;;;;;7.03;1.60;;;18.50;99.90;;;;;;5071623;28;20043;-82
2022/08/20 01:29:20;;;;;;;4.60;1.60;;;18.40;99.90;;;;;;5024316;28;20174;-82
2022/08/20 01:31:47;;;;;;;6.20;1.50;;;18.40;99.90;;;;;;5073786;28;20043;-82
2022/08/20 01:34:16;;;;;;;6.05;1.63;;;18.30;99.90;;;;;;5091973;28;20046;-82
2022/08/20 01:36:44;;;;;;;4.60;1.63;;;18.30;99.90;;;;;;5071857;28;20051;-83
2022/08/20 01:39:12;;;;;;;6.75;1.48;;;18.30;99.90;;;;;;5090307;28;20047;-83
2022/08/20 01:41:50;;;;;;;5.40;1.30;;;18.30;99.90;;;;;;5062240;28;20076;-83
2022/08/20 01:44:18;;;;;;;4.97;1.42;;;18.30;99.90;;;;;;5082102;28;20047;-82
2022/08/20 01:46:46;;;;;;;5.13;1.40;;;18.30;99.90;;;;;;5061202;28;20073;-83
2022/08/20 01:49:17;;;;;;;2.75;1.10;;;18.30;99.90;;;;;;5073982;28;20055;-83
2022/08/20 01:51:43;;;;;;;4.75;1.50;;;18.30;99.90;;;;;;5089365;28;20493;-83
2022/08/20 01:54:10;;;;;;;5.68;2.33;;;18.20;99.90;;;;;;5080901;28;20044;-83
2022/08/20 01:56:55;;;;;;;4.45;1.40;;;18.20;99.90;;;;;;5090875;28;20040;-83
2022/08/20 01:59:21;;;;;;;4.25;1.40;;;18.20;99.90;;;;;;5089400;28;20687;-82
2022/08/20 02:01:47;;;;;;;7.15;1.70;;;18.20;99.90;;;;;;5068497;28;20512;-82
2022/08/20 02:04:15;;;;;;;6.32;1.30;;;18.20;99.90;;;;;;5073060;28;20099;-83
2022/08/20 02:06:45;;;;;;;4.97;1.40;;;18.20;99.90;;;;;;5057998;28;20039;-83
2022/08/20 02:09:12;;;;;;;4.78;1.30;;;18.20;99.90;;;;;;5074762;28;20054;-82
2022/08/20 02:11:38;;;;;;;3.78;1.00;;;18.20;99.90;;;;;;5075421;28;20389;-84
2022/08/20 02:14:07;;;;;;;4.30;1.27;;;18.10;99.90;;;;;;5060682;28;20047;-83
2022/08/20 02:16:35;;;;;;;3.20;1.20;;;18.10;99.90;;;;;;5058645;28;20043;-83
2022/08/20 02:19:12;;;;;;;4.82;1.60;;;18.10;99.90;;;;;;5074204;28;20132;-83
2022/08/20 02:21:49;;;;;;;4.38;1.60;;;18.10;99.90;;;;;;5060795;28;20533;-83
2022/08/20 02:24:16;;;;;;;4.35;1.23;;;18.10;99.90;;;;;;5090101;28;20043;-82
2022/08/20 02:26:42;;;;;;;4.45;1.10;;;18.00;99.90;;;;;;5071779;28;20071;-83
2022/08/20 02:29:11;;;;;;;4.82;1.40;;;18.00;99.90;;;;;;5074061;28;20098;-82
2022/08/20 02:31:38;;;;;;;3.53;1.10;;;18.00;99.90;;;;;;5056688;28;20068;-83
2022/08/20 02:34:07;;;;;;;3.97;1.17;;;18.00;99.90;;;;;;5071452;28;20479;-83
2022/08/20 02:36:35;;;;;;;4.95;1.23;;;18.00;99.90;;;;;;5055949;28;20129;-82
2022/08/20 02:39:06;;;;;;;3.20;1.20;;;18.00;99.90;;;;;;5109835;27;20039;-82
2022/08/20 02:41:33;;;;;;;2.67;1.10;;;18.00;99.90;;;;;;5091951;28;20568;-82
2022/08/20 02:43:59;;;;;;;4.63;1.17;;;18.10;99.90;;;;;;5057725;28;21364;-83
2022/08/20 02:46:27;;;;;;;3.05;1.27;;;18.10;99.90;;;;;;5076624;28;20044;-82
2022/08/20 02:48:57;;;;;;;4.88;1.10;;;18.10;99.90;;;;;;5077004;28;20061;-82
2022/08/20 02:51:23;;;;;;;6.90;1.30;;;18.10;99.90;;;;;;5080119;28;20078;-82
2022/08/20 02:53:49;;;;;;;2.83;1.10;;;18.10;99.90;;;;;;5090689;28;20047;-82
2022/08/20 02:56:15;;;;;;;4.95;1.20;;;18.10;99.90;;;;;;5070005;28;20062;-82
2022/08/20 02:58:42;;;;;;;5.97;1.20;;;18.10;99.90;;;;;;5054478;28;20047;-82
2022/08/20 03:01:11;;;;;;;6.60;1.35;;;18.00;99.90;;;;;;5068074;28;20052;-83
2022/08/20 03:03:38;;;;;;;4.68;1.38;;;18.00;99.90;;;;;;5090299;28;20078;-84
2022/08/20 03:06:05;;;;;;;4.55;1.30;;;18.00;99.90;;;;;;5090244;28;20052;-82
2022/08/20 03:08:31;;;;;;;3.47;1.05;;;18.00;99.90;;;;;;5087070;28;20431;-83
2022/08/20 03:10:56;;;;;;;5.22;1.20;;;18.00;99.90;;;;;;5053186;28;20532;-84
2022/08/20 03:13:22;;;;;;;4.55;1.25;;;18.00;99.90;;;;;;5087923;28;20093;-82
2022/08/20 03:15:52;;;;;;;3.53;1.20;;;17.90;99.90;;;;;;5055851;28;20054;-82
2022/08/20 03:18:19;;;;;;;4.05;1.25;;;17.90;99.90;;;;;;5087923;28;20071;-83
2022/08/20 03:20:46;;;;;;;3.95;1.20;;;17.90;99.90;;;;;;5088825;28;20074;-83
2022/08/20 03:23:13;;;;;;;6.43;1.42;;;17.80;99.90;;;;;;5055744;28;20054;-83
2022/08/20 03:25:39;;;;;;;5.65;1.27;;;17.80;99.90;;;;;;5060187;28;20357;-83
2022/08/20 03:28:05;;;;;;;3.42;1.33;;;17.70;99.90;;;;;;5085685;28;20036;-83
2022/08/20 03:30:31;;;;;;;7.10;1.70;;;17.80;99.90;;;;;;5056841;28;20032;-83
2022/08/20 03:32:57;;;;;;;4.28;1.35;;;17.70;99.90;;;;;;5052007;28;20044;-82
2022/08/20 03:35:25;;;;;;;5.95;1.55;;;17.70;99.90;;;;;;5043378;28;20060;-82
2022/08/20 03:37:53;;;;;;;4.95;1.30;;;17.70;99.90;;;;;;5088007;28;20081;-82
2022/08/20 03:40:23;;;;;;;4.25;1.33;;;17.60;99.90;;;;;;5071655;28;20040;-82
2022/08/20 03:42:51;;;;;;;5.35;1.50;;;17.60;99.90;;;;;;5082458;28;20047;-83
2022/08/20 03:45:18;;;;;;;6.63;1.80;;;17.50;99.90;;;;;;5088766;28;21335;-82
2022/08/20 03:47:44;;;;;;;5.10;1.30;;;17.50;99.90;;;;;;5085896;28;20508;-83
2022/08/20 03:50:12;;;;;;;5.78;1.50;;;17.50;99.90;;;;;;5070506;28;20412;-82
2022/08/20 03:52:38;;;;;;;7.00;1.65;;;17.50;99.90;;;;;;5088033;28;20180;-84
2022/08/20 03:55:06;;;;;;;7.60;1.70;;;17.40;99.90;;;;;;5053414;28;20047;-83
2022/08/20 03:57:32;;;;;;;5.57;1.40;;;17.40;99.90;;;;;;5074544;28;20050;-82
2022/08/20 03:59:58;;;;;;;4.35;1.48;;;17.40;99.90;;;;;;5073797;28;20048;-82
2022/08/20 04:02:24;;;;;;;5.55;1.42;;;17.40;99.90;;;;;;5041721;28;20051;-83
2022/08/20 04:04:50;;;;;;;3.67;1.10;;;17.30;99.90;;;;;;5073995;28;20073;-84
2022/08/20 04:07:26;;;;;;;6.20;1.52;;;17.30;99.90;;;;;;5065006;28;20035;-83
2022/08/20 04:09:56;;;;;;;4.57;1.52;;;17.30;99.90;;;;;;5093742;28;20582;-82
2022/08/20 04:12:24;;;;;;;5.05;1.50;;;17.30;99.90;;;;;;5061916;28;20115;-83
2022/08/20 04:14:51;;;;;;;6.28;1.40;;;17.30;99.90;;;;;;5074449;28;20077;-82
2022/08/20 04:17:19;;;;;;;6.55;1.52;;;17.20;99.90;;;;;;5060650;28;20084;-82
2022/08/20 04:19:46;;;;;;;3.05;1.45;;;17.20;99.90;;;;;;5093108;28;20036;-84
2022/08/20 04:22:13;;;;;;;5.53;1.48;;;17.20;99.90;;;;;;5066010;28;20039;-82
2022/08/20 04:24:39;;;;;;;7.60;1.92;;;17.10;99.90;;;;;;5074917;28;20044;-83
2022/08/20 04:27:07;;;;;;;5.13;1.42;;;17.10;99.90;;;;;;5089268;28;20370;-83
2022/08/20 04:29:33;;;;;;;5.97;1.52;;;17.10;99.90;;;;;;5076044;28;20055;-82
2022/08/20 04:32:01;;;;;;;7.70;1.70;;;17.10;99.90;;;;;;5090074;28;20120;-82
2022/08/20 04:34:27;;;;;;;5.10;1.38;;;17.10;99.90;;;;;;5063141;28;20044;-82
2022/08/20 04:36:53;;;;;;;6.35;1.60;;;17.00;99.90;;;;;;5072775;28;20273;-83
2022/08/20 04:39:19;;;;;;;6.95;1.40;;;17.00;99.90;;;;;;5058230;28;20139;-83
2022/08/20 04:41:44;;;;;;;6.15;1.60;;;17.00;99.90;;;;;;5074121;28;20142;-84
2022/08/20 04:44:11;;;;;;;5.93;1.85;;;17.00;99.90;;;;;;5058566;28;20542;-83
2022/08/20 04:46:38;;;;;;;7.03;2.03;;;16.90;99.90;;;;;;5086124;28;20105;-83
2022/08/20 04:49:05;;;;;;;5.55;1.60;;;16.90;99.90;;;;;;5092572;28;20055;-83
2022/08/20 04:51:32;;;;;;;6.45;1.80;;;16.90;99.90;;;;;;5057638;28;20047;-82
2022/08/20 04:53:59;;;;;;;3.85;1.42;;;16.80;99.90;;;;;;5059105;28;20048;-82
2022/08/20 04:56:28;;;;;;;5.45;1.60;;;16.80;99.90;;;;;;5070504;28;20149;-82
2022/08/20 04:58:56;;;;;;;6.10;1.70;;;16.80;99.90;;;;;;5069991;28;20051;-82
2022/08/20 05:01:22;;;;;;;7.03;1.67;;;16.80;99.90;;;;;;5089719;28;20052;-82
2022/08/20 05:03:49;;;;;;;5.35;1.83;;;16.70;99.90;;;;;;5062635;28;20051;-84
2022/08/20 05:06:16;;;;;;;5.22;1.85;;;16.70;99.90;;;;;;5088637;28;20043;-83
2022/08/20 05:08:43;;;;;;;7.28;1.70;;;16.60;99.90;;;;;;5071900;28;20055;-82
2022/08/20 05:11:10;;;;;;;8.10;1.80;;;16.60;99.90;;;;;;5073560;28;20552;-82
2022/08/20 05:13:36;;;;;;;5.75;1.58;;;16.50;99.90;;;;;;5090554;28;20040;-82
2022/08/20 05:16:03;;;;;;;7.88;2.17;;;16.50;99.90;;;;;;5039389;28;20100;-82
2022/08/20 05:18:33;;;;;;;8.13;2.10;;;16.50;99.90;;;;;;5056287;28;20048;-83
2022/08/20 05:21:04;;;;;;;5.22;1.65;;;16.40;99.90;;;;;;5074914;28;20050;-83
2022/08/20 05:23:35;;;;;;;6.07;2.10;;;16.40;99.90;;;;;;5075827;28;20048;-82
2022/08/20 05:26:06;;;;;;;6.32;2.22;;;16.40;99.90;;;;;;5088857;28;20066;-84
2022/08/20 05:28:32;;;;;;;8.18;2.38;;;16.40;99.90;;;;;;5057490;28;20166;-83
2022/08/20 05:31:02;;;;;;;6.45;1.98;;;16.40;99.90;;;;;;5059251;28;20039;-82
2022/08/20 05:33:28;;;;;;;6.97;1.80;;;16.40;99.90;;;;;;5061381;28;20861;-84
2022/08/20 05:35:56;;;;;;;4.82;2.05;;;16.40;99.90;;;;;;5088628;28;20039;-84
2022/08/20 05:38:25;;;;;;;5.78;2.00;;;16.40;99.90;;;;;;5071959;28;20048;-84
2022/08/20 05:40:57;;;;;;;6.32;1.83;;;16.40;99.90;;;;;;5074886;28;20043;-84
2022/08/20 05:43:23;;;;;;;6.82;2.13;;;16.40;99.90;;;;;;5073919;28;20059;-83
2022/08/20 05:45:52;;;;;;;5.78;1.75;;;16.40;99.90;;;;;;5093301;28;20040;-85
2022/08/20 05:48:22;;;;;;;5.75;1.85;;;16.40;99.90;;;;;;5068652;28;20083;-82
2022/08/20 05:50:53;;;;;;;5.32;1.60;;;16.40;99.90;;;;;;5062041;28;20129;-84
2022/08/20 05:53:31;;;;;;;;;;;;;;;;;;;;;
2022/08/20 05:56:00;;;;;;;7.25;1.95;;;16.50;99.90;;;;;;5094945;28;20072;-86
2022/08/20 05:58:32;;;;;;;6.88;2.25;;;16.50;99.90;;;;;;5073744;28;20039;-85
2022/08/20 06:01:18;;;;;;;7.85;2.20;;;16.50;99.90;;;;;;5090640;28;20047;-83
2022/08/20 06:06:37;;;;;;;5.38;2.35;;;15.90;99.90;;;;;;5089812;28;20485;-86
2022/08/20 06:09:05;;;;;;;5.35;1.70;;;16.60;99.90;;;;;;5075764;28;20108;-86
2022/08/20 06:11:37;;;;;;;5.97;2.00;;;16.40;99.90;;;;;;5075158;28;20385;-85
2022/08/20 06:14:15;;;;;;;;;;;;;;;;;;;;;
2022/08/20 06:16:52;;;;;;;7.28;1.60;;;16.80;99.90;;;;;;5091095;28;20047;-88
2022/08/20 06:19:21;;;;;;;4.25;1.67;;;16.90;99.90;;;;;;5056725;28;20503;-85
2022/08/20 06:21:56;;;;;;;7.05;1.95;;;17.00;99.90;;;;;;5076618;28;20104;-86
2022/08/20 06:24:23;;;;;;;3.80;1.50;;;17.10;99.90;;;;;;5095807;28;20058;-86
2022/08/20 06:27:15;;;;;;;6.07;1.60;;;17.20;99.90;;;;;;5082454;28;20301;-86
2022/08/20 06:29:43;;;;;;;9.52;2.00;;;16.60;99.90;;;;;;5062754;28;20266;-87
2022/08/20 06:32:12;;;;;;;7.05;1.60;;;17.40;99.90;;;;;;5060616;28;20576;-87
2022/08/20 06:34:39;;;;;;;6.10;1.63;;;17.50;99.90;;;;;;5073942;28;20487;-84
2022/08/20 06:37:17;;;;;;;6.00;1.63;;;17.70;99.90;;;;;;5075303;28;20067;-86
2022/08/20 06:39:56;;;;;;;;;;;;;;;;;;;;;
2022/08/20 06:42:50;;;;;;;;;;;;;;;;;;;;;
2022/08/20 06:45:28;;;;;;;6.03;1.73;;;18.10;99.90;;;;;;5090919;28;20047;-88
2022/08/20 06:47:58;;;;;;;6.32;1.70;;;18.20;99.90;;;;;;5076946;28;20058;-88
2022/08/20 06:51:08;;;;;;;;;;;;;;;;;;;;;
2022/08/20 06:54:21;;;;;;;;;;;;;;;;;;;;;
2022/08/20 06:56:48;;;;;;;6.15;1.65;;;18.70;99.90;;;;;;5093859;28;20061;-88
2022/08/20 06:59:14;;;;;;;5.35;1.60;;;18.90;99.90;;;;;;5081084;28;20139;-88
2022/08/20 07:01:48;;;;;;;6.03;1.70;;;19.10;99.90;;;;;;5084235;28;20075;-88
2022/08/20 07:04:15;;;;;;;6.20;1.85;;;19.20;99.90;;;;;;5084764;28;20047;-88
2022/08/20 07:06:42;;;;;;;4.43;1.50;;;19.40;99.90;;;;;;5070920;28;20053;-84
2022/08/20 07:09:11;;;;;;;5.97;1.52;;;19.50;99.90;;;;;;5072822;28;20052;-86
2022/08/20 07:11:41;;;;;;;7.53;1.63;;;19.60;99.90;;;;;;5070178;28;20043;-92
2022/08/20 07:14:06;;;;;;;7.50;1.92;;;19.70;99.90;;;;;;5059832;28;20530;-84
2022/08/20 07:16:32;;;;;;;6.65;1.63;;;19.90;99.90;;;;;;5079556;28;20123;-84
2022/08/20 07:18:58;;;;;;;5.97;1.92;;;19.40;99.90;;;;;;5076839;28;20048;-85
2022/08/20 07:21:24;;;;;;;7.75;1.98;;;20.10;99.90;;;;;;5092453;28;20135;-85
2022/08/20 07:23:52;;;;;;;6.63;1.63;;;20.20;99.90;;;;;;5074147;28;20048;-84
2022/08/20 07:26:21;;;;;;;7.38;1.52;;;20.90;99.90;;;;;;5048034;28;20373;-85
2022/08/20 07:28:47;;;;;;;9.77;1.90;;;20.50;99.90;;;;;;5062938;28;20052;-84
2022/08/20 07:33:58;;;;;;;6.47;1.60;;;20.80;99.90;;;;;;5095998;28;20096;-86
2022/08/20 07:36:24;;;;;;;5.78;1.83;;;20.90;99.90;;;;;;5085334;28;20423;-84
2022/08/20 07:38:53;;;;;;;5.78;1.60;;;20.90;99.90;;;;;;5086661;28;20101;-87
2022/08/20 07:41:20;;;;;;;6.05;1.63;;;21.30;99.90;;;;;;5078708;28;20407;-84
2022/08/20 07:43:47;;;;;;;5.40;1.60;;;21.40;99.90;;;;;;5081885;28;20473;-84
2022/08/20 07:46:15;;;;;;;4.53;1.33;;;21.60;99.90;;;;;;5085788;28;20525;-84
2022/08/20 07:48:50;;;;;;;7.22;1.88;;;21.70;99.90;;;;;;5101412;28;20526;-83
2022/08/20 07:51:18;;;;;;;6.37;1.80;;;21.80;99.90;;;;;;5101901;28;20047;-85
2022/08/20 07:53:46;;;;;;;6.72;1.95;;;22.00;99.90;;;;;;5078338;28;20054;-86
2022/08/20 07:56:18;;;;;;;4.57;1.25;;;22.00;99.90;;;;;;5080023;28;20040;-84
2022/08/20 07:58:48;;;;;;;5.25;1.38;;;22.10;99.90;;;;;;5081273;28;20079;-84
2022/08/20 08:01:23;;;;;;;6.15;1.67;;;22.20;99.90;;;;;;5082892;28;20119;-88
2022/08/20 08:04:17;;;;;;;6.65;1.50;;;22.20;99.90;;;;;;5080128;28;20489;-87
2022/08/20 08:07:39;;;;;;;;;;;;;;;;;;;;;
2022/08/20 08:10:13;;;;;;;5.22;1.70;;;22.10;99.90;;;;;;5071388;28;20051;-84
2022/08/20 08:12:44;;;;;;;6.57;1.35;;;22.50;99.90;;;;;;5083631;28;20051;-86
2022/08/20 08:15:32;;;;;;;6.18;1.70;;;23.10;99.90;;;;;;5095109;28;20052;-87
2022/08/20 08:18:06;;;;;;;4.25;1.35;;;22.60;99.90;;;;;;5091921;28;20044;-86
2022/08/20 08:20:43;;;;;;;5.93;1.40;;;22.90;99.90;;;;;;5092091;28;20059;-88
2022/08/20 08:23:12;;;;;;;5.63;1.50;;;23.10;99.90;;;;;;5081275;28;20461;-88
2022/08/20 08:25:52;;;;;;;7.45;1.85;;;23.30;99.90;;;;;;5074011;28;20083;-90
2022/08/20 08:28:29;;;;;;;9.85;1.42;;;23.20;99.90;;;;;;5069093;28;20070;-89
2022/08/20 08:31:07;;;;;;;8.63;1.70;;;23.10;99.90;;;;;;5092856;28;20048;-89
2022/08/20 08:33:35;;;;;;;6.60;1.88;;;23.50;99.90;;;;;;5080371;28;20058;-87
2022/08/20 08:36:08;;;;;;;7.28;1.52;;;23.20;99.90;;;;;;5076439;28;20907;-88
2022/08/20 08:42:09;;;;;;;7.03;1.88;;;23.50;99.90;;;;;;5062738;28;20047;-88
2022/08/20 08:47:50;;;;;;;;;;;23.80;99.90;;;;;;5063325;28;20067;-88
2022/08/20 08:50:54;;;;;;;;;;;;;;;;;;;;;
2022/08/20 08:53:44;;;;;;;5.35;1.38;;;23.90;99.20;;;;;;5089953;28;20050;-89
2022/08/20 08:59:59;;;;;;;4.68;1.70;;;23.90;98.90;;;;;;5022717;28;20082;-88
2022/08/20 09:02:37;;;;;;;6.57;1.63;;;24.00;98.50;;;;;;5003416;28;20046;-87
2022/08/20 09:05:13;;;;;;;4.65;1.40;;;23.80;98.70;;;;;;5062164;28;20115;-85
2022/08/20 09:07:46;;;;;;;4.35;1.40;;;24.20;98.60;;;;;;5040401;28;20069;-86
2022/08/20 09:10:13;;;;;;;6.93;1.70;;;24.50;98.10;;;;;;5053629;28;20122;-83
2022/08/20 09:12:40;;;;;;;5.43;1.50;;;24.60;97.90;;;;;;5036277;28;20048;-84
2022/08/20 09:15:27;;;;;;;5.90;1.45;;;24.70;97.30;;;;;;5041343;28;20641;-84
2022/08/20 09:17:53;;;;;;;5.82;1.30;;;24.50;96.80;;;;;;5022287;28;20604;-84
2022/08/20 09:20:19;;;;;;;5.32;1.42;;;24.80;96.60;;;;;;5023062;28;20052;-85
2022/08/20 09:22:44;;;;;;;4.60;1.38;;;24.70;96.10;;;;;;5057143;28;20051;-83
2022/08/20 09:25:10;;;;;;;6.38;1.52;;;24.70;96.00;;;;;;5040685;28;20049;-85
2022/08/20 09:27:36;;;;;;;4.63;1.40;;;24.50;96.00;;;;;;5060713;28;20044;-83
2022/08/20 09:30:03;;;;;;;4.45;1.52;;;24.60;96.30;;;;;;5057522;28;20051;-82
2022/08/20 09:32:30;;;;;;;4.70;1.33;;;24.70;96.10;;;;;;5059116;28;20392;-82
2022/08/20 09:34:58;;;;;;;5.15;1.30;;;25.10;96.00;;;;;;5085628;28;20043;-83
2022/08/20 09:37:29;;;;;;;3.78;1.33;;;25.30;95.50;;;;;;5087777;28;20090;-83
2022/08/20 09:39:59;;;;;;;6.43;1.58;;;25.50;95.10;;;;;;5092053;28;20058;-81
2022/08/20 09:42:28;;;;;;;6.88;1.55;;;25.50;94.60;;;;;;5072418;28;20043;-84
2022/08/20 09:45:00;;;;;;;3.58;1.25;;;25.30;94.10;;;;;;5089843;28;20051;-82
2022/08/20 09:47:37;;;;;;;3.75;1.25;;;25.30;93.80;;;;;;5069097;28;20052;-86
2022/08/20 09:50:21;;;;;;;4.38;1.60;;;25.40;94.20;;;;;;5093232;28;20067;-88
2022/08/20 09:52:56;;;;;;;6.93;1.83;;;25.50;94.00;;;;;;5107112;28;20705;-88
2022/08/20 09:55:31;;;;;;;5.22;1.40;;;25.50;93.00;;;;;;5106183;28;20332;-87
2022/08/20 09:58:27;;;;;;;4.63;1.55;;;25.50;93.40;;;;;;5088780;28;20584;-83
2022/08/20 10:00:53;;;;;;;3.30;1.30;;;25.60;93.20;;;;;;5073039;28;20644;-82
2022/08/20 10:03:18;;;;;;;8.45;1.70;;;25.70;93.10;;;;;;5052889;28;20044;-82
2022/08/20 10:05:44;;;;;;;8.15;1.65;;;25.90;92.90;;;;;;5076507;28;20039;-83
2022/08/20 10:08:11;;;;;;;4.60;1.98;;;26.00;92.40;;;;;;5054706;28;20040;-84
2022/08/20 10:10:37;;;;;;;4.60;1.50;;;26.20;91.90;;;;;;5077670;28;20040;-86
2022/08/20 10:13:04;;;;;;;5.47;1.50;;;26.30;91.50;;;;;;5097746;28;20078;-87
2022/08/20 10:16:01;;;;;;;5.60;1.38;;;26.50;91.30;;;;;;5081857;28;20135;-86
2022/08/20 10:18:27;;;;;;;6.97;1.88;;;26.60;90.60;;;;;;5062741;28;20062;-83
2022/08/20 10:20:53;;;;;;;5.63;1.50;;;26.50;89.00;;;;;;5055437;28;20105;-82
2022/08/20 10:23:18;;;;;;;8.10;1.60;;;26.30;86.50;;;;;;5068762;28;20393;-82
2022/08/20 10:25:44;;;;;;;5.30;1.42;;;26.20;87.40;;;;;;5090930;28;20094;-82
2022/08/20 10:28:13;;;;;;;4.78;1.48;;;26.30;87.10;;;;;;5072025;28;20082;-84
2022/08/20 10:30:39;;;;;;;5.40;1.20;;;26.10;85.80;;;;;;5072479;28;20044;-83
2022/08/20 10:33:09;;;;;;;4.22;1.45;;;26.30;86.40;;;;;;5056937;28;20055;-83
2022/08/20 10:35:35;;;;;;;7.72;1.77;;;26.30;85.80;;;;;;5074642;28;20039;-82
2022/08/20 10:38:01;;;;;;;6.63;2.08;;;26.40;84.80;;;;;;5074869;28;20043;-84
2022/08/20 10:40:27;;;;;;;4.53;1.40;;;26.50;85.20;;;;;;5089083;28;20439;-82
2022/08/20 10:42:55;;;;;;;3.40;1.30;;;26.60;85.80;;;;;;5071911;28;20066;-84
2022/08/20 10:45:21;;;;;;;4.47;1.55;;;26.70;86.30;;;;;;5069129;28;20051;-83
2022/08/20 10:47:47;;;;;;;6.72;1.83;;;26.50;86.00;;;;;;5089670;28;20040;-84
2022/08/20 10:50:16;;;;;;;5.60;1.30;;;26.50;85.30;;;;;;5073530;28;20051;-84
2022/08/20 10:52:42;;;;;;;4.53;1.45;;;26.40;82.90;;;;;;5076917;28;20190;-85
2022/08/20 10:55:08;;;;;;;5.25;1.50;;;26.30;84.90;;;;;;5075594;28;20039;-83
2022/08/20 10:57:36;;;;;;;5.68;1.45;;;26.30;85.30;;;;;;5077381;28;20071;-84
2022/08/20 11:00:04;;;;;;;4.90;1.45;;;26.40;85.70;;;;;;5049885;28;20180;-82
2022/08/20 11:02:30;;;;;;;6.00;1.65;;;26.50;85.20;;;;;;5071386;28;20494;-84
2022/08/20 11:04:56;;;;;;;5.85;1.60;;;26.60;85.30;;;;;;5074072;28;20047;-84
2022/08/20 11:07:37;;;;;;;5.78;1.63;;;26.70;85.20;;;;;;5054699;28;20135;-83
2022/08/20 11:10:05;;;;;;;4.55;1.50;;;26.80;82.10;;;;;;5086964;28;20056;-82
2022/08/20 11:12:32;;;;;;;3.92;1.27;;;26.70;83.50;;;;;;5057169;28;20048;-84
2022/08/20 11:15:01;;;;;;;4.30;1.40;;;26.80;84.20;;;;;;5092315;28;20044;-84
2022/08/20 11:17:30;;;;;;;5.10;1.60;;;26.80;84.90;;;;;;5074123;28;20055;-84
2022/08/20 11:19:58;;;;;;;6.20;1.63;;;26.90;86.10;;;;;;5087769;28;20128;-82
2022/08/20 11:22:25;;;;;;;5.53;1.73;;;27.10;86.90;;;;;;5073584;28;20138;-83
2022/08/20 11:24:51;;;;;;;5.15;2.03;;;27.30;86.20;;;;;;5094645;28;20564;-82
2022/08/20 11:27:27;;;;;;;5.45;1.60;;;27.30;86.70;;;;;;5078422;28;20047;-82
2022/08/20 11:29:53;;;;;;;7.13;1.55;;;27.30;86.00;;;;;;5080736;28;20477;-83
2022/08/20 11:32:19;;;;;;;5.43;1.77;;;27.50;86.80;;;;;;5075877;28;20051;-82
2022/08/20 11:34:45;;;;;;;6.22;1.60;;;27.30;86.30;;;;;;5061221;28;20081;-82
2022/08/20 11:37:13;;;;;;;4.38;1.50;;;27.40;85.70;;;;;;5077327;28;20044;-83
2022/08/20 11:39:39;;;;;;;6.22;1.70;;;27.10;83.90;;;;;;5092951;28;20039;-85
2022/08/20 11:42:05;;;;;;;8.07;1.70;;;27.40;84.20;;;;;;5074799;28;20094;-85
2022/08/20 11:44:33;;;;;;;5.05;1.85;;;27.40;84.50;;;;;;5062274;28;20048;-84
2022/08/20 11:47:03;;;;;;;7.35;1.77;;;27.40;85.10;;;;;;5079830;28;20055;-85
2022/08/20 11:49:31;;;;;;;6.85;1.92;;;27.50;85.40;;;;;;5063103;28;20066;-83
2022/08/20 11:51:57;;;;;;;6.07;1.23;;;27.60;84.90;;;;;;5096633;28;20048;-83
2022/08/20 11:54:23;;;;;;;6.55;1.60;;;27.50;84.40;;;;;;5057482;28;20048;-83
2022/08/20 11:56:49;;;;;;;5.53;1.58;;;27.70;85.40;;;;;;5091485;28;20047;-83
2022/08/20 11:59:15;;;;;;;4.68;1.40;;;27.70;84.60;;;;;;5056036;28;20106;-87
2022/08/20 12:01:41;;;;;;;4.10;1.40;;;27.50;84.50;;;;;;5071455;28;20036;-84
2022/08/20 12:04:07;;;;;;;6.20;1.88;;;27.50;84.80;;;;;;5055707;28;20482;-82
2022/08/20 12:06:33;;;;;;;3.83;1.40;;;27.70;85.00;;;;;;5081147;28;20086;-83
2022/08/20 12:08:59;;;;;;;6.88;1.50;;;27.60;84.40;;;;;;5094965;28;20054;-82
2022/08/20 12:11:25;;;;;;;8.23;1.67;;;27.30;84.40;;;;;;5076146;28;20051;-82
2022/08/20 12:13:51;;;;;;;5.35;1.60;;;27.60;85.10;;;;;;5084986;28;20135;-82
2022/08/20 12:16:17;;;;;;;5.55;1.38;;;27.60;84.70;;;;;;5062093;28;20127;-83
2022/08/20 12:18:44;;;;;;;5.72;1.60;;;27.80;85.00;;;;;;5094060;28;20113;-82
2022/08/20 12:21:10;;;;;;;5.35;1.85;;;28.10;85.30;;;;;;5097740;28;20043;-82
2022/08/20 12:23:36;;;;;;;6.13;1.52;;;28.10;85.20;;;;;;5082461;28;20258;-82
2022/08/20 12:26:02;;;;;;;5.72;1.73;;;28.10;85.70;;;;;;5085485;28;20040;-82
2022/08/20 12:28:29;;;;;;;5.30;1.50;;;28.00;85.90;;;;;;5079679;28;20777;-82
2022/08/20 12:30:56;;;;;;;4.43;1.27;;;28.20;86.00;;;;;;5062467;28;20494;-81
2022/08/20 12:33:22;;;;;;;6.22;1.70;;;28.50;85.80;;;;;;5082098;28;20103;-82
2022/08/20 12:35:47;;;;;;;6.00;1.58;;;28.70;85.40;;;;;;5051580;28;20047;-82
2022/08/20 12:38:16;;;;;;;5.22;1.13;;;28.60;84.20;;;;;;5103235;28;20040;-83
2022/08/20 12:40:41;;;;;;;5.70;1.60;;;28.30;83.40;;;;;;5076572;28;20040;-83
2022/08/20 12:43:07;;;;;;;3.55;1.52;;;28.30;83.90;;;;;;5066238;28;20040;-82
2022/08/20 12:45:36;;;;;;;6.05;1.58;;;28.30;83.00;;;;;;5083222;28;20051;-82
2022/08/20 12:48:10;;;;;;;6.53;1.77;;;28.00;82.80;;;;;;5060220;28;20048;-82
2022/08/20 12:50:39;;;;;;;6.22;1.52;;;28.00;83.70;;;;;;5079789;28;20534;-82
2022/08/20 12:53:05;;;;;;;6.53;1.40;;;28.30;83.70;;;;;;5081002;28;20508;-82
2022/08/20 12:55:31;;;;;;;5.45;1.75;;;28.30;82.10;;;;;;5083998;28;20083;-83
2022/08/20 12:58:00;;;;;;;4.43;1.48;;;28.10;81.40;;;;;;5065871;28;20047;-82
2022/08/20 13:00:35;;;;;;;4.80;1.50;;;27.90;81.50;;;;;;5098727;28;20086;-83
2022/08/20 13:03:03;;;;;;;7.68;1.50;;;28.00;81.60;;;;;;5088980;28;20054;-83
2022/08/20 13:05:30;;;;;;;4.78;1.70;;;28.00;81.90;;;;;;5098934;28;20488;-82
2022/08/20 13:07:56;;;;;;;7.20;1.65;;;28.00;82.60;;;;;;5052660;28;20060;-82
2022/08/20 13:10:27;;;;;;;6.25;1.60;;;27.80;83.40;;;;;;5079452;28;20056;-82
2022/08/20 13:12:56;;;;;;;4.07;1.50;;;27.80;83.30;;;;;;5065865;28;20607;-83
2022/08/20 13:15:22;;;;;;;5.25;1.65;;;27.90;84.10;;;;;;5082059;28;20134;-82
2022/08/20 13:17:53;;;;;;;4.40;1.52;;;28.10;84.70;;;;;;5083176;28;20078;-83
2022/08/20 13:20:26;;;;;;;4.28;1.55;;;28.10;83.10;;;;;;5069546;28;20481;-84
2022/08/20 13:22:58;;;;;;;5.07;1.48;;;28.10;82.80;;;;;;5080567;28;20092;-82
2022/08/20 13:25:25;;;;;;;5.40;1.77;;;28.20;82.50;;;;;;5102660;28;20059;-84